Time;durP1;ratioP1;P1;durP2;ratioP2;P2;SDS_P1;SDS_P2;PMS_P1;PMS_P2;Temp;Humidity;BMP_temperature;BMP_pressure;BME280_temperature;BME280_humidity;BME280_pressure;Samples;Min_cycle;Max_cycle;Signal;HPM_P1;HPM_P2
2023/10/03 00:02:00;;;;;;;21.87;8.33;;;;;16.60;100671.00;;;;5014232;28;20221;-72
2023/10/03 00:04:48;;;;;;;15.80;7.60;;;;;16.60;100666.00;;;;5022431;28;20225;-71
2023/10/03 00:07:35;;;;;;;16.00;8.30;;;;;16.60;100666.00;;;;5022726;28;20221;-72
2023/10/03 00:10:24;;;;;;;15.43;7.70;;;;;16.50;100662.00;;;;5027211;28;20237;-71
2023/10/03 00:13:11;;;;;;;18.93;7.70;;;;;16.50;100657.00;;;;5020485;28;20924;-70
2023/10/03 00:15:57;;;;;;;18.67;8.20;;;;;16.60;100656.00;;;;5022986;28;20331;-69
2023/10/03 00:18:44;;;;;;;12.90;6.90;;;;;16.50;100647.00;;;;5018415;28;20238;-71
2023/10/03 00:21:30;;;;;;;18.73;7.97;;;;;16.50;100640.00;;;;5023542;28;20246;-71
2023/10/03 00:24:17;;;;;;;18.67;7.53;;;;;16.50;100636.00;;;;5018552;28;20233;-70
2023/10/03 00:27:08;;;;;;;17.77;7.07;;;;;16.50;100640.00;;;;5027166;28;20276;-71
2023/10/03 00:29:55;;;;;;;15.57;7.53;;;;;16.50;100627.00;;;;5017453;28;20237;-72
2023/10/03 00:32:43;;;;;;;15.57;7.40;;;;;16.50;100630.00;;;;5019405;28;20256;-70
2023/10/03 00:35:30;;;;;;;21.33;8.10;;;;;16.40;100631.00;;;;5025447;28;20265;-70
2023/10/03 00:38:17;;;;;;;19.73;7.90;;;;;16.40;100619.00;;;;5022129;28;20233;-70
2023/10/03 00:41:05;;;;;;;21.37;7.30;;;;;16.40;100615.00;;;;5022159;28;20230;-71
2023/10/03 00:43:54;;;;;;;22.17;7.90;;;;;16.40;100623.00;;;;5025492;28;20287;-71
2023/10/03 00:46:40;;;;;;;18.37;7.77;;;;;16.40;100620.00;;;;5016869;28;20241;-71
2023/10/03 00:49:28;;;;;;;17.07;7.87;;;;;16.40;100605.00;;;;5017262;28;20242;-70
2023/10/03 00:52:15;;;;;;;16.87;7.47;;;;;16.40;100594.00;;;;5020145;28;20233;-70
2023/10/03 00:55:03;;;;;;;21.27;7.30;;;;;16.40;100605.00;;;;5024034;28;20265;-71
2023/10/03 00:57:50;;;;;;;13.20;7.37;;;;;16.40;100594.00;;;;5017685;28;20353;-70
2023/10/03 01:00:39;;;;;;;17.20;7.90;;;;;16.40;100595.00;;;;5016269;28;20623;-71
2023/10/03 01:03:28;;;;;;;21.30;8.27;;;;;16.50;100593.00;;;;5020312;28;20785;-69
2023/10/03 01:06:15;;;;;;;19.60;8.50;;;;;16.50;100592.00;;;;5023348;28;20236;-70
2023/10/03 01:09:03;;;;;;;20.60;8.20;;;;;16.60;100586.00;;;;5021530;28;20611;-71
2023/10/03 01:11:52;;;;;;;22.33;9.17;;;;;16.60;100583.00;;;;5026723;28;20233;-69
2023/10/03 01:14:41;;;;;;;19.00;8.43;;;;;16.60;100557.00;;;;5026032;28;20276;-71
2023/10/03 01:17:31;;;;;;;19.00;8.33;;;;;16.60;100558.00;;;;5019763;28;20245;-70
2023/10/03 01:20:28;;;;;;;21.53;8.87;;;;;16.60;100555.00;;;;5025235;28;20229;-70
2023/10/03 01:23:16;;;;;;;23.93;8.97;;;;;16.60;100543.00;;;;5018832;28;20351;-71
2023/10/03 01:26:04;;;;;;;19.10;8.37;;;;;16.60;100538.00;;;;5025081;28;20717;-71
2023/10/03 01:28:51;;;;;;;20.10;8.40;;;;;16.60;100534.00;;;;5023740;28;20230;-71
2023/10/03 01:31:38;;;;;;;21.73;9.13;;;;;16.60;100532.00;;;;5025145;28;20225;-71
2023/10/03 01:34:24;;;;;;;22.60;9.43;;;;;16.70;100538.00;;;;5017986;28;20362;-72
2023/10/03 01:37:10;;;;;;;26.07;9.57;;;;;16.70;100530.00;;;;5026830;28;20229;-68
2023/10/03 01:39:58;;;;;;;22.23;9.67;;;;;16.70;100520.00;;;;5023823;28;20232;-71
2023/10/03 01:42:46;;;;;;;22.87;10.10;;;;;16.70;100521.00;;;;5019109;28;21073;-71
2023/10/03 01:45:33;;;;;;;25.40;9.50;;;;;16.70;100515.00;;;;5020460;28;20237;-71
2023/10/03 01:48:20;;;;;;;26.17;9.70;;;;;16.70;100507.00;;;;5023668;28;20353;-70
2023/10/03 01:51:08;;;;;;;24.37;9.80;;;;;16.70;100496.00;;;;5024553;28;20244;-71
2023/10/03 01:53:56;;;;;;;23.50;9.67;;;;;16.70;100489.00;;;;5012246;28;20280;-71
2023/10/03 01:56:44;;;;;;;26.00;10.33;;;;;16.70;100488.00;;;;5021677;28;20241;-71
2023/10/03 01:59:30;;;;;;;25.33;9.73;;;;;16.80;100475.00;;;;5020221;28;20252;-72
2023/10/03 02:02:17;;;;;;;23.40;9.90;;;;;16.80;100458.00;;;;5025477;28;20245;-70
2023/10/03 02:05:03;;;;;;;23.53;10.43;;;;;16.80;100452.00;;;;5023471;28;20332;-67
2023/10/03 02:07:51;;;;;;;24.80;9.63;;;;;16.80;100450.00;;;;5022568;28;20245;-70
2023/10/03 02:10:38;;;;;;;24.87;10.17;;;;;16.80;100439.00;;;;5024320;28;20229;-71
2023/10/03 02:13:25;;;;;;;22.40;9.90;;;;;16.80;100425.00;;;;5023795;28;20233;-68
2023/10/03 02:16:13;;;;;;;22.43;9.77;;;;;16.80;100434.00;;;;5024493;28;20229;-70
2023/10/03 02:19:01;;;;;;;26.20;10.03;;;;;16.90;100425.00;;;;5014374;28;20299;-70
2023/10/03 02:21:53;;;;;;;27.80;10.17;;;;;16.80;100412.00;;;;5025442;28;20279;-70
2023/10/03 02:24:41;;;;;;;26.83;9.57;;;;;16.80;100397.00;;;;5018268;28;20246;-67
2023/10/03 02:27:27;;;;;;;30.23;9.33;;;;;16.80;100391.00;;;;5024558;28;20232;-69
2023/10/03 02:30:23;;;;;;;25.97;9.83;;;;;16.80;100385.00;;;;5022230;28;20240;-71
2023/10/03 02:33:12;;;;;;;19.70;9.23;;;;;16.80;100375.00;;;;5019665;28;20237;-69
2023/10/03 02:35:59;;;;;;;23.07;9.63;;;;;16.80;100369.00;;;;5019574;28;20225;-72
2023/10/03 02:38:47;;;;;;;24.50;9.70;;;;;16.80;100371.00;;;;5014345;28;20233;-70
2023/10/03 02:41:34;;;;;;;27.00;10.37;;;;;16.80;100365.00;;;;5017717;28;20241;-72
2023/10/03 02:44:20;;;;;;;25.97;9.33;;;;;16.80;100357.00;;;;5013342;28;20237;-71
2023/10/03 02:47:09;;;;;;;24.77;10.03;;;;;16.80;100356.00;;;;5024729;28;20230;-71
2023/10/03 02:49:58;;;;;;;27.17;10.00;;;;;16.80;100371.00;;;;5020048;28;20241;-71
2023/10/03 02:52:46;;;;;;;21.80;9.37;;;;;16.70;100347.00;;;;5025413;28;20352;-69
2023/10/03 02:55:33;;;;;;;25.33;9.47;;;;;16.70;100352.00;;;;5016319;28;20288;-69
2023/10/03 02:58:20;;;;;;;22.77;9.37;;;;;16.70;100352.00;;;;5025390;28;20671;-71
2023/10/03 03:01:07;;;;;;;22.50;9.63;;;;;16.70;100347.00;;;;5023185;28;20232;-72
2023/10/03 03:03:54;;;;;;;18.33;8.93;;;;;16.70;100336.00;;;;5024631;28;20233;-70
2023/10/03 03:06:41;;;;;;;23.80;9.83;;;;;16.70;100326.00;;;;5022549;28;20321;-70
2023/10/03 03:09:28;;;;;;;25.30;10.23;;;;;16.70;100324.00;;;;5015102;28;20303;-70
2023/10/03 03:12:14;;;;;;;25.87;10.03;;;;;16.70;100325.00;;;;5017909;28;20381;-70
2023/10/03 03:15:01;;;;;;;22.60;9.50;;;;;16.70;100318.00;;;;5019450;28;20319;-71
2023/10/03 03:17:47;;;;;;;23.50;9.63;;;;;16.70;100339.00;;;;5022236;28;20845;-69
2023/10/03 03:20:37;;;;;;;22.13;9.90;;;;;16.70;100335.00;;;;5021727;28;20612;-71
2023/10/03 03:23:29;;;;;;;20.47;9.87;;;;;16.80;100325.00;;;;5017011;28;20260;-72
2023/10/03 03:26:20;;;;;;;23.60;9.53;;;;;16.80;100307.00;;;;5022954;28;20241;-71
2023/10/03 03:29:20;;;;;;;25.33;9.80;;;;;16.80;100315.00;;;;5015221;28;20230;-70
2023/10/03 03:32:07;;;;;;;21.87;9.97;;;;;16.80;100303.00;;;;5022420;28;20283;-71
2023/10/03 03:34:54;;;;;;;23.60;9.30;;;;;16.80;100312.00;;;;5024401;28;20229;-71
2023/10/03 03:37:42;;;;;;;20.43;9.53;;;;;16.70;100310.00;;;;5022252;28;20261;-71
2023/10/03 03:40:31;;;;;;;24.53;8.77;;;;;16.80;100303.00;;;;5017509;28;20249;-70
2023/10/03 03:43:18;;;;;;;25.27;9.23;;;;;16.80;100301.00;;;;5024110;28;21396;-71
2023/10/03 03:46:05;;;;;;;24.50;10.00;;;;;16.80;100304.00;;;;5013807;28;21095;-70
2023/10/03 03:48:52;;;;;;;21.83;9.13;;;;;16.80;100305.00;;;;5027827;28;20275;-70
2023/10/03 03:51:39;;;;;;;20.73;8.97;;;;;16.80;100317.00;;;;5024698;28;20292;-70
2023/10/03 03:54:27;;;;;;;24.37;9.10;;;;;16.80;100325.00;;;;5011726;28;20233;-70
2023/10/03 03:57:14;;;;;;;19.30;8.90;;;;;16.90;100333.00;;;;5023744;28;20261;-70
2023/10/03 04:00:11;;;;;;;24.40;9.23;;;;;16.90;100331.00;;;;5025334;28;20234;-71
2023/10/03 04:02:59;;;;;;;20.97;9.23;;;;;17.00;100335.00;;;;5028254;28;20233;-70
2023/10/03 04:05:47;;;;;;;22.23;9.80;;;;;17.00;100335.00;;;;5019809;28;20245;-70
2023/10/03 04:08:35;;;;;;;22.83;8.97;;;;;17.00;100323.00;;;;5021587;28;20221;-70
2023/10/03 04:11:22;;;;;;;21.73;9.73;;;;;17.10;100334.00;;;;5022083;28;20244;-71
2023/10/03 04:14:08;;;;;;;22.30;9.23;;;;;17.20;100331.00;;;;5024931;28;20608;-71
2023/10/03 04:16:55;;;;;;;19.93;9.03;;;;;17.20;100333.00;;;;5023660;28;20226;-71
2023/10/03 04:19:41;;;;;;;20.43;8.20;;;;;17.30;100338.00;;;;5021784;28;20776;-70
2023/10/03 04:22:30;;;;;;;17.37;8.70;;;;;17.40;100339.00;;;;5021661;28;20225;-69
2023/10/03 04:25:19;;;;;;;17.43;8.43;;;;;17.70;100345.00;;;;5026756;28;20234;-71
2023/10/03 04:28:08;;;;;;;19.57;8.57;;;;;17.90;100355.00;;;;5024350;28;20364;-71
2023/10/03 04:30:54;;;;;;;17.67;8.20;;;;;17.90;100335.00;;;;5023571;28;20253;-72
2023/10/03 04:33:41;;;;;;;19.70;7.80;;;;;18.10;100313.00;;;;5028451;28;20237;-70
2023/10/03 04:36:28;;;;;;;18.93;8.30;;;;;18.20;100323.00;;;;5019688;28;20217;-71
2023/10/03 04:39:14;;;;;;;17.50;7.97;;;;;18.20;100323.00;;;;5025038;28;20249;-70
2023/10/03 04:42:00;;;;;;;19.70;7.93;;;;;18.20;100330.00;;;;5023844;28;20798;-71
2023/10/03 04:44:48;;;;;;;23.10;8.40;;;;;18.30;100318.00;;;;5033709;28;20512;-70
2023/10/03 04:47:34;;;;;;;16.93;7.33;;;;;18.40;100320.00;;;;5035667;28;20226;-71
2023/10/03 04:50:25;;;;;;;22.80;7.57;;;;;18.60;100318.00;;;;5041021;28;20284;-70
2023/10/03 04:53:14;;;;;;;21.33;8.93;;;;;18.70;100324.00;;;;5038818;28;20237;-67
2023/10/03 04:56:01;;;;;;;17.77;7.67;;;;;18.80;100313.00;;;;5036945;28;20320;-73
2023/10/03 04:58:48;;;;;;;20.60;7.57;;;;;18.70;100322.00;;;;5039503;28;20312;-71
2023/10/03 05:01:36;;;;;;;19.80;7.93;;;;;18.70;100322.00;;;;5037996;28;20233;-72
2023/10/03 05:04:23;;;;;;;20.47;7.87;;;;;18.80;100315.00;;;;5036409;28;20229;-72
2023/10/03 05:07:11;;;;;;;22.47;7.60;;;;;18.90;100315.00;;;;5025408;28;20264;-71
2023/10/03 05:09:57;;;;;;;17.67;8.10;;;;;18.90;100310.00;;;;5017893;28;20233;-72
2023/10/03 05:12:45;;;;;;;19.47;8.43;;;;;18.80;100309.00;;;;5020051;28;20220;-71
2023/10/03 05:15:31;;;;;;;16.50;7.40;;;;;18.90;100312.00;;;;5026734;28;20221;-70
2023/10/03 05:18:19;;;;;;;19.50;8.00;;;;;18.90;100326.00;;;;5020655;28;20239;-70
2023/10/03 05:21:08;;;;;;;18.93;8.17;;;;;18.90;100341.00;;;;5021497;28;20705;-70
2023/10/03 05:23:54;;;;;;;19.40;7.90;;;;;19.00;100335.00;;;;5018918;28;20225;-71
2023/10/03 05:26:41;;;;;;;19.40;7.63;;;;;18.90;100331.00;;;;5020329;28;20252;-71
2023/10/03 05:29:28;;;;;;;18.73;7.80;;;;;18.90;100337.00;;;;5026845;28;20238;-71
2023/10/03 05:32:17;;;;;;;19.50;7.80;;;;;18.80;100346.00;;;;5022776;28;20286;-71
2023/10/03 05:35:06;;;;;;;22.73;8.83;;;;;18.80;100334.00;;;;5024517;28;20289;-70
2023/10/03 05:37:52;;;;;;;19.00;8.20;;;;;18.80;100344.00;;;;5012367;28;20253;-71
2023/10/03 05:40:39;;;;;;;17.37;7.60;;;;;18.70;100338.00;;;;5017617;28;20312;-71
2023/10/03 05:43:26;;;;;;;18.87;8.70;;;;;18.70;100345.00;;;;5017866;28;20252;-73
2023/10/03 05:46:12;;;;;;;19.33;7.63;;;;;18.80;100363.00;;;;5017219;28;20348;-68
2023/10/03 05:48:59;;;;;;;16.70;7.67;;;;;18.90;100364.00;;;;5026076;28;20227;-71
2023/10/03 05:51:46;;;;;;;20.10;8.40;;;;;18.90;100389.00;;;;5017611;28;20233;-71
2023/10/03 05:54:34;;;;;;;18.67;7.87;;;;;18.90;100372.00;;;;5021470;28;20230;-70
2023/10/03 05:57:20;;;;;;;20.10;8.57;;;;;19.10;100358.00;;;;5019985;28;20233;-71
2023/10/03 06:00:09;;;;;;;18.77;7.63;;;;;19.10;100389.00;;;;5021726;28;20237;-69
2023/10/03 06:02:55;;;;;;;18.17;7.60;;;;;19.00;100398.00;;;;5010850;28;20300;-72
2023/10/03 06:05:43;;;;;;;20.80;7.87;;;;;19.00;100397.00;;;;5018977;28;20411;-69
2023/10/03 06:08:32;;;;;;;20.57;7.67;;;;;19.00;100371.00;;;;5023965;28;20299;-69
2023/10/03 06:11:19;;;;;;;18.93;8.00;;;;;19.10;100396.00;;;;5019196;28;20265;-70
2023/10/03 06:14:05;;;;;;;17.27;7.50;;;;;19.10;100405.00;;;;5021544;28;20248;-70
2023/10/03 06:16:51;;;;;;;16.30;7.30;;;;;19.10;100407.00;;;;5025688;28;20232;-72
2023/10/03 06:19:38;;;;;;;16.13;7.30;;;;;19.20;100395.00;;;;5024955;28;20237;-72
2023/10/03 06:22:24;;;;;;;19.37;7.90;;;;;19.30;100407.00;;;;5017822;28;20230;-69
2023/10/03 06:25:12;;;;;;;18.23;7.90;;;;;19.30;100415.00;;;;5025361;28;20233;-72
2023/10/03 06:27:59;;;;;;;15.30;6.80;;;;;19.30;100415.00;;;;5020257;28;20644;-69
2023/10/03 06:30:45;;;;;;;15.37;7.50;;;;;19.30;100423.00;;;;5018286;28;20777;-70
2023/10/03 06:33:31;;;;;;;18.07;7.50;;;;;19.40;100419.00;;;;5024847;28;20303;-71
2023/10/03 06:36:17;;;;;;;16.47;7.10;;;;;19.40;100419.00;;;;5021782;28;20327;-69
2023/10/03 06:39:05;;;;;;;14.73;6.97;;;;;19.40;100416.00;;;;5025307;28;20233;-72
2023/10/03 06:41:56;;;;;;;15.27;6.97;;;;;19.40;100431.00;;;;5019034;28;20845;-69
2023/10/03 06:44:42;;;;;;;18.30;7.60;;;;;19.40;100435.00;;;;5021411;28;20761;-71
2023/10/03 06:47:29;;;;;;;16.03;6.73;;;;;19.50;100438.00;;;;5016412;28;20397;-71
2023/10/03 06:50:17;;;;;;;16.03;6.87;;;;;19.50;100432.00;;;;5024592;28;20794;-71
2023/10/03 06:53:05;;;;;;;15.27;7.33;;;;;19.70;100427.00;;;;5021061;28;20238;-71
2023/10/03 06:55:51;;;;;;;17.23;7.23;;;;;19.80;100448.00;;;;5015488;28;20258;-73
2023/10/03 06:58:39;;;;;;;18.93;7.80;;;;;19.80;100469.00;;;;5023287;28;20366;-71
2023/10/03 07:01:25;;;;;;;17.60;7.40;;;;;19.90;100446.00;;;;5013889;28;20254;-71
2023/10/03 07:04:11;;;;;;;14.90;6.50;;;;;19.90;100458.00;;;;5025023;28;20269;-73
2023/10/03 07:06:58;;;;;;;14.57;6.87;;;;;19.90;100442.00;;;;5018115;28;20878;-72
2023/10/03 07:09:44;;;;;;;11.33;6.00;;;;;19.90;100457.00;;;;5017816;28;20234;-69
2023/10/03 07:12:31;;;;;;;11.83;6.30;;;;;20.00;100485.00;;;;5023230;28;20738;-73
2023/10/03 07:15:19;;;;;;;15.97;6.07;;;;;20.00;100473.00;;;;5021011;28;20257;-69
2023/10/03 07:18:06;;;;;;;13.23;6.03;;;;;20.10;100504.00;;;;5023818;28;20234;-71
2023/10/03 07:20:55;;;;;;;9.47;5.37;;;;;20.10;100495.00;;;;5018689;28;21004;-70
2023/10/03 07:23:41;;;;;;;9.67;5.40;;;;;20.20;100485.00;;;;5013353;28;20228;-69
2023/10/03 07:26:31;;;;;;;8.53;4.80;;;;;20.10;100473.00;;;;5021799;28;20318;-72
2023/10/03 07:29:20;;;;;;;8.60;4.70;;;;;20.10;100476.00;;;;5021575;28;20639;-71
2023/10/03 07:32:12;;;;;;;10.77;4.70;;;;;20.10;100501.00;;;;5022609;28;20808;-70
2023/10/03 07:34:58;;;;;;;6.47;4.67;;;;;20.00;100488.00;;;;5017289;28;20714;-70
2023/10/03 07:37:44;;;;;;;6.33;4.07;;;;;20.00;100495.00;;;;5025226;28;20258;-71
2023/10/03 07:40:31;;;;;;;6.23;4.43;;;;;19.90;100491.00;;;;5025838;28;20242;-71
2023/10/03 07:43:17;;;;;;;7.80;5.07;;;;;19.90;100494.00;;;;5024302;28;20851;-71
2023/10/03 07:46:03;;;;;;;8.10;4.90;;;;;19.90;100494.00;;;;5022118;28;20360;-71
2023/10/03 07:48:53;;;;;;;7.93;4.57;;;;;19.90;100495.00;;;;5023776;28;20393;-70
2023/10/03 07:51:45;;;;;;;7.57;4.70;;;;;20.00;100498.00;;;;5020715;28;20231;-71
2023/10/03 07:54:35;;;;;;;9.30;4.97;;;;;19.90;100507.00;;;;5025983;28;20279;-72
2023/10/03 07:57:23;;;;;;;10.00;4.80;;;;;20.00;100495.00;;;;5028565;28;20367;-69
2023/10/03 08:00:20;;;;;;;8.87;4.70;;;;;20.00;100490.00;;;;5022260;28;20354;-71
2023/10/03 08:03:08;;;;;;;9.57;4.37;;;;;20.00;100503.00;;;;5013150;28;20235;-72
2023/10/03 08:05:58;;;;;;;12.40;4.83;;;;;20.00;100497.00;;;;5016108;28;20322;-71
2023/10/03 08:08:45;;;;;;;8.83;4.90;;;;;19.90;100512.00;;;;5026609;28;20275;-71
2023/10/03 08:11:32;;;;;;;10.03;5.00;;;;;19.80;100531.00;;;;5025427;28;20232;-68
2023/10/03 08:14:19;;;;;;;10.37;4.50;;;;;19.80;100536.00;;;;5026887;28;20255;-71
2023/10/03 08:17:05;;;;;;;7.33;4.23;;;;;19.70;100553.00;;;;5020268;28;20282;-70
2023/10/03 08:19:51;;;;;;;5.50;4.37;;;;;19.60;100546.00;;;;5016271;28;20346;-71
2023/10/03 08:22:41;;;;;;;9.03;4.67;;;;;19.60;100549.00;;;;5019105;28;20700;-69
2023/10/03 08:25:28;;;;;;;9.87;4.70;;;;;19.70;100548.00;;;;5016303;28;20240;-71
2023/10/03 08:28:20;;;;;;;7.80;4.47;;;;;19.60;100542.00;;;;5024303;28;20244;-69
2023/10/03 08:31:08;;;;;;;9.47;4.83;;;;;19.60;100555.00;;;;5025996;28;20252;-70
2023/10/03 08:33:55;;;;;;;8.40;4.23;;;;;19.60;100564.00;;;;5012936;28;20272;-70
2023/10/03 08:36:41;;;;;;;9.17;4.57;;;;;19.60;100562.00;;;;5025542;28;20282;-69
2023/10/03 08:39:32;;;;;;;7.50;4.43;;;;;19.60;100587.00;;;;5006254;28;20745;-70
2023/10/03 08:42:34;;;;;;;9.10;4.47;;;;;19.60;100580.00;;;;5022735;28;20230;-66
2023/10/03 08:45:23;;;;;;;11.90;5.13;;;;;19.60;100589.00;;;;5025965;28;20231;-69
2023/10/03 08:48:10;;;;;;;8.13;4.77;;;;;19.70;100580.00;;;;5022585;28;20235;-69
2023/10/03 08:50:58;;;;;;;7.57;4.43;;;;;19.70;100588.00;;;;5021309;28;20242;-70
2023/10/03 08:53:48;;;;;;;7.93;4.77;;;;;19.70;100580.00;;;;5022672;28;20259;-70
2023/10/03 08:56:36;;;;;;;8.37;4.47;;;;;19.70;100577.00;;;;5021464;28;20230;-70
2023/10/03 08:59:23;;;;;;;8.20;4.43;;;;;19.70;100599.00;;;;5019195;28;20707;-67
2023/10/03 09:02:14;;;;;;;8.00;4.63;;;;;19.70;100598.00;;;;5025738;28;20313;-70
2023/10/03 09:05:15;;;;;;;9.20;4.80;;;;;19.60;100606.00;;;;4992472;28;20233;-70
2023/10/03 09:08:08;;;;;;;8.90;4.93;;;;;19.60;100613.00;;;;5026522;28;20717;-70
2023/10/03 09:10:55;;;;;;;9.43;4.70;;;;;19.70;100613.00;;;;5024795;28;20239;-70
2023/10/03 09:13:45;;;;;;;9.77;5.00;;;;;19.70;100607.00;;;;5023825;28;20365;-70
2023/10/03 09:16:38;;;;;;;8.77;4.73;;;;;19.60;100607.00;;;;5029062;28;20223;-69
2023/10/03 09:19:42;;;;;;;9.30;4.87;;;;;19.70;100596.00;;;;5024133;28;20247;-70
2023/10/03 09:22:30;;;;;;;14.40;4.77;;;;;19.80;100601.00;;;;5021914;28;20718;-71
2023/10/03 09:25:19;;;;;;;7.17;4.53;;;;;19.80;100611.00;;;;5017337;28;20242;-69
2023/10/03 09:28:06;;;;;;;15.33;5.13;;;;;20.00;100620.00;;;;5025242;28;20334;-68
2023/10/03 09:30:56;;;;;;;6.13;4.47;;;;;20.00;100618.00;;;;5018610;28;20296;-69
2023/10/03 09:33:43;;;;;;;7.57;4.70;;;;;20.10;100597.00;;;;5023761;28;20231;-71
2023/10/03 09:36:29;;;;;;;7.27;4.50;;;;;20.20;100596.00;;;;5018516;28;20303;-69
2023/10/03 09:39:21;;;;;;;8.33;4.60;;;;;20.20;100598.00;;;;5023770;28;20256;-69
2023/10/03 09:42:15;;;;;;;6.37;4.30;;;;;20.20;100603.00;;;;5014769;28;20228;-67
2023/10/03 09:45:06;;;;;;;8.23;4.50;;;;;20.30;100602.00;;;;5017791;28;20722;-71
2023/10/03 09:48:05;;;;;;;9.33;4.30;;;;;20.30;100607.00;;;;5021806;28;20238;-70
2023/10/03 09:50:53;;;;;;;7.63;4.13;;;;;20.20;100636.00;;;;5017414;28;20231;-71
2023/10/03 09:53:41;;;;;;;7.60;4.17;;;;;20.20;100631.00;;;;5025538;28;20234;-71
2023/10/03 09:56:36;;;;;;;7.23;4.30;;;;;20.10;100641.00;;;;5014226;28;20779;-71
2023/10/03 09:59:24;;;;;;;8.03;4.73;;;;;20.00;100644.00;;;;5016513;28;20601;-71
2023/10/03 10:02:12;;;;;;;8.10;4.47;;;;;20.00;100651.00;;;;5012226;28;20259;-70
2023/10/03 10:05:05;;;;;;;7.50;4.97;;;;;19.90;100675.00;;;;5020455;28;20913;-71
2023/10/03 10:08:06;;;;;;;6.50;4.30;;;;;19.80;100652.00;;;;5018711;28;20239;-71
2023/10/03 10:11:07;;;;;;;7.80;4.70;;;;;19.80;100652.00;;;;5017522;28;20236;-71
2023/10/03 10:14:08;;;;;;;7.67;4.70;;;;;19.70;100657.00;;;;5011974;28;20285;-71
2023/10/03 10:17:16;;;;;;;8.87;5.03;;;;;19.70;100666.00;;;;5014591;28;20290;-71
2023/10/03 10:20:17;;;;;;;9.67;5.60;;;;;19.60;100662.00;;;;5019557;28;20231;-70
2023/10/03 10:23:16;;;;;;;8.33;5.23;;;;;19.60;100674.00;;;;5022232;28;20334;-71
2023/10/03 10:26:28;;;;;;;8.03;5.50;;;;;19.70;100676.00;;;;5019481;28;20230;-69
2023/10/03 10:29:19;;;;;;;8.23;5.10;;;;;19.80;100671.00;;;;5018097;28;20305;-70
2023/10/03 10:32:24;;;;;;;11.80;5.63;;;;;20.00;100661.00;;;;5024225;28;20278;-70
2023/10/03 10:35:41;;;;;;;10.37;5.43;;;;;20.10;100650.00;;;;5022782;28;20275;-70
2023/10/03 10:38:56;;;;;;;10.67;5.40;;;;;20.20;100656.00;;;;5020585;28;20309;-70
2023/10/03 10:41:42;;;;;;;6.73;4.27;;;;;20.20;100665.00;;;;5021326;28;20256;-68
2023/10/03 10:44:30;;;;;;;6.10;4.00;;;;;20.10;100683.00;;;;5024412;28;20256;-69
2023/10/03 10:47:16;;;;;;;4.50;3.70;;;;;20.00;100685.00;;;;5020713;28;20286;-69
2023/10/03 10:50:08;;;;;;;8.33;3.90;;;;;19.90;100698.00;;;;5018737;28;20227;-70
2023/10/03 10:53:07;;;;;;;6.60;3.40;;;;;19.80;100712.00;;;;5021906;28;20231;-68
2023/10/03 10:55:54;;;;;;;4.77;2.40;;;;;19.80;100696.00;;;;5021998;28;20596;-68
2023/10/03 10:58:53;;;;;;;5.27;1.60;;;;;19.50;100719.00;;;;5021264;28;20226;-68
2023/10/03 11:01:40;;;;;;;3.53;1.30;;;;;19.40;100747.00;;;;5018326;28;20233;-68
2023/10/03 11:04:29;;;;;;;1.47;1.10;;;;;19.30;100746.00;;;;5019296;28;20734;-69
2023/10/03 11:07:20;;;;;;;1.93;1.10;;;;;19.30;100759.00;;;;5018371;28;20288;-70
2023/10/03 11:10:12;;;;;;;1.47;1.00;;;;;19.30;100750.00;;;;5012927;28;20258;-71
2023/10/03 11:13:20;;;;;;;0.80;0.80;;;;;19.30;100768.00;;;;5017834;28;20242;-69
2023/10/03 11:16:08;;;;;;;1.37;0.80;;;;;19.40;100759.00;;;;5021080;28;20705;-70
2023/10/03 11:18:58;;;;;;;1.40;1.00;;;;;19.40;100755.00;;;;5024458;28;20263;-71
2023/10/03 11:21:45;;;;;;;1.33;0.90;;;;;19.60;100754.00;;;;5021058;28;20338;-71
2023/10/03 11:24:38;;;;;;;2.90;1.17;;;;;19.70;100762.00;;;;5020722;28;20829;-68
2023/10/03 11:27:26;;;;;;;1.97;1.00;;;;;19.80;100765.00;;;;5012824;28;20606;-71
2023/10/03 11:30:19;;;;;;;4.37;1.33;;;;;19.90;100758.00;;;;5021575;28;20245;-71
2023/10/03 11:33:06;;;;;;;4.87;1.30;;;;;19.90;100769.00;;;;5023775;28;20662;-69
2023/10/03 11:35:53;;;;;;;4.40;1.40;;;;;19.90;100767.00;;;;5021972;28;20362;-71
2023/10/03 11:38:46;;;;;;;1.90;1.43;;;;;19.90;100764.00;;;;5020231;28;20236;-70
2023/10/03 11:41:33;;;;;;;2.07;1.43;;;;;20.00;100767.00;;;;5019451;28;20711;-71
2023/10/03 11:44:21;;;;;;;2.10;1.30;;;;;19.90;100755.00;;;;5021688;28;20229;-70
2023/10/03 11:47:08;;;;;;;3.43;1.70;;;;;19.90;100774.00;;;;5023248;28;20222;-71
2023/10/03 11:49:56;;;;;;;2.33;1.60;;;;;19.80;100770.00;;;;5023557;28;20242;-69
2023/10/03 11:52:42;;;;;;;4.07;1.70;;;;;19.80;100771.00;;;;5023835;28;20292;-70
2023/10/03 11:55:31;;;;;;;3.20;1.90;;;;;19.80;100755.00;;;;5018882;28;20329;-66
2023/10/03 11:58:18;;;;;;;3.03;2.10;;;;;19.80;100774.00;;;;5018925;28;20238;-70
2023/10/03 12:01:04;;;;;;;3.50;1.60;;;;;19.70;100789.00;;;;5018560;28;20234;-70
2023/10/03 12:03:53;;;;;;;3.83;1.70;;;;;19.60;100802.00;;;;5015984;28;20226;-72
2023/10/03 12:06:41;;;;;;;3.63;1.90;;;;;19.60;100807.00;;;;5017058;28;20226;-69
2023/10/03 12:09:27;;;;;;;3.37;1.77;;;;;19.30;100800.00;;;;5021625;28;20254;-71
2023/10/03 12:12:14;;;;;;;2.37;1.50;;;;;19.30;100797.00;;;;5018463;28;20235;-71
2023/10/03 12:15:01;;;;;;;2.77;1.50;;;;;19.30;100806.00;;;;5019157;28;20246;-69
2023/10/03 12:17:48;;;;;;;2.60;1.40;;;;;19.30;100810.00;;;;5020633;28;20230;-67
2023/10/03 12:20:38;;;;;;;3.57;1.57;;;;;19.40;100815.00;;;;5004895;28;20615;-70
2023/10/03 12:23:25;;;;;;;1.60;1.30;;;;;19.40;100814.00;;;;5022335;28;20235;-70
2023/10/03 12:26:11;;;;;;;2.63;1.50;;;;;19.60;100821.00;;;;5020477;28;20222;-71
2023/10/03 12:29:12;;;;;;;1.70;1.60;;;;;19.70;100839.00;;;;5017960;28;20257;-70
2023/10/03 12:31:58;;;;;;;2.53;1.40;;;;;19.70;100868.00;;;;5021371;28;20357;-70
2023/10/03 12:34:46;;;;;;;3.33;1.40;;;;;19.80;100880.00;;;;5019776;28;20363;-70
2023/10/03 12:37:34;;;;;;;2.60;1.43;;;;;19.70;100871.00;;;;5023513;28;20297;-71
2023/10/03 12:40:22;;;;;;;1.90;1.20;;;;;19.60;100860.00;;;;5019842;28;20739;-69
2023/10/03 12:43:10;;;;;;;2.53;1.30;;;;;19.50;100873.00;;;;5017767;28;20318;-70
2023/10/03 12:45:56;;;;;;;1.43;1.10;;;;;19.40;100883.00;;;;5017691;28;20732;-70
2023/10/03 12:48:43;;;;;;;1.80;1.40;;;;;19.30;100884.00;;;;5012391;28;20232;-70
2023/10/03 12:51:29;;;;;;;4.23;1.20;;;;;19.30;100898.00;;;;5010346;28;20313;-70
2023/10/03 12:54:17;;;;;;;2.13;1.30;;;;;19.30;100904.00;;;;5023045;28;20229;-70
2023/10/03 12:57:05;;;;;;;2.27;1.40;;;;;19.30;100928.00;;;;5012775;28;20234;-65
2023/10/03 12:59:52;;;;;;;2.13;1.50;;;;;19.30;100943.00;;;;5025917;28;20264;-68
2023/10/03 13:02:39;;;;;;;2.50;1.00;;;;;19.10;100925.00;;;;5019866;28;20697;-68
2023/10/03 13:05:26;;;;;;;3.73;1.40;;;;;18.80;100942.00;;;;5012714;28;20710;-71
2023/10/03 13:08:12;;;;;;;3.60;1.30;;;;;18.60;100955.00;;;;5025332;28;20312;-70
2023/10/03 13:11:04;;;;;;;3.47;1.37;;;;;18.40;100963.00;;;;5019602;28;20360;-73
2023/10/03 13:13:51;;;;;;;3.43;1.30;;;;;18.20;100975.00;;;;5020282;28;20723;-71
2023/10/03 13:16:40;;;;;;;1.37;1.20;;;;;17.90;100994.00;;;;5015973;28;20230;-71
2023/10/03 13:19:27;;;;;;;2.80;1.30;;;;;17.90;100996.00;;;;5017799;28;20461;-71
2023/10/03 13:22:14;;;;;;;1.60;1.20;;;;;17.90;101001.00;;;;5021628;28;20734;-70
2023/10/03 13:25:00;;;;;;;2.47;1.30;;;;;18.00;101020.00;;;;5015865;28;20234;-71
2023/10/03 13:27:49;;;;;;;2.13;1.27;;;;;18.10;101020.00;;;;5014035;28;20229;-72
2023/10/03 13:30:35;;;;;;;1.63;1.30;;;;;18.10;101011.00;;;;5019067;28;20440;-70
2023/10/03 13:33:21;;;;;;;2.90;1.40;;;;;18.00;101026.00;;;;5018518;28;20225;-71
2023/10/03 13:36:08;;;;;;;2.33;1.50;;;;;18.10;101021.00;;;;5020357;28;20229;-71
2023/10/03 13:38:54;;;;;;;3.40;1.70;;;;;18.10;101022.00;;;;5016995;28;20319;-71
2023/10/03 13:41:42;;;;;;;2.30;1.73;;;;;17.90;101031.00;;;;5020163;28;20300;-71
2023/10/03 13:44:30;;;;;;;3.50;1.93;;;;;17.80;101043.00;;;;5021015;28;20225;-72
2023/10/03 13:47:16;;;;;;;3.97;1.60;;;;;17.70;101052.00;;;;5021393;28;20230;-70
2023/10/03 13:50:03;;;;;;;1.63;1.17;;;;;17.50;101064.00;;;;5020036;28;20245;-71